createdAt,value
2022-11-25T00:00:42.194Z,1.41
2022-11-25T00:03:10.038Z,1.37
2022-11-25T00:05:37.850Z,1.32
2022-11-25T00:08:05.975Z,1.29
2022-11-25T00:10:33.763Z,1.27
2022-11-25T00:13:01.579Z,1.26
2022-11-25T00:15:30.995Z,1.24
2022-11-25T00:17:58.780Z,1.22
2022-11-25T00:20:26.561Z,1.18
2022-11-25T00:22:54.314Z,1.21
2022-11-25T00:25:22.037Z,1.21
2022-11-25T00:27:53.362Z,1.20
2022-11-25T00:30:21.308Z,1.20
2022-11-25T00:32:50.470Z,1.19
2022-11-25T00:35:18.257Z,1.19
2022-11-25T00:37:46.227Z,1.20
2022-11-25T00:40:15.071Z,1.19
2022-11-25T00:43:00.247Z,1.21
2022-11-25T00:45:28.032Z,1.20
2022-11-25T00:47:57.207Z,1.20
2022-11-25T00:50:25.007Z,1.20
2022-11-25T00:52:52.783Z,1.19
2022-11-25T00:55:20.938Z,1.17
2022-11-25T00:57:48.812Z,1.13
2022-11-25T01:00:17.021Z,1.12
2022-11-25T01:02:45.722Z,1.17
2022-11-25T01:05:15.188Z,1.13
2022-11-25T01:07:43.057Z,1.08
2022-11-25T01:10:11.311Z,1.08
2022-11-25T01:12:39.515Z,1.02
2022-11-25T01:15:08.498Z,1.04
2022-11-25T01:17:36.335Z,0.99
2022-11-25T01:20:04.459Z,0.94
2022-11-25T01:22:33.603Z,0.99
2022-11-25T01:25:03.910Z,1.05
2022-11-25T01:27:31.632Z,1.08
2022-11-25T01:29:59.386Z,1.04
2022-11-25T01:32:27.218Z,1.05
2022-11-25T01:34:55.039Z,1.01
2022-11-25T01:37:22.788Z,1.01
2022-11-25T01:39:52.015Z,1.04
2022-11-25T01:42:21.020Z,1.05
2022-11-25T01:45:28.345Z,1.09
2022-11-25T01:47:58.907Z,1.08
2022-11-25T01:50:28.642Z,1.08
2022-11-25T01:52:57.885Z,1.04
2022-11-25T01:55:30.812Z,1.08
2022-11-25T01:58:02.975Z,1.12
2022-11-25T02:00:30.801Z,1.09
2022-11-25T02:02:59.761Z,1.11
2022-11-25T02:05:34.261Z,1.11
2022-11-25T02:08:02.225Z,1.11
2022-11-25T02:10:33.642Z,1.08
2022-11-25T02:13:03.621Z,1.09
2022-11-25T02:15:34.470Z,1.12
2022-11-25T02:18:05.183Z,1.11
2022-11-25T02:20:33.030Z,1.06
2022-11-25T02:23:08.426Z,1.04
2022-11-25T02:25:39.055Z,1.01
2022-11-25T02:28:16.277Z,1.02
2022-11-25T02:30:45.057Z,1.05
2022-11-25T02:33:13.916Z,1.01
2022-11-25T02:35:43.342Z,0.96
2022-11-25T02:38:15.853Z,0.93
2022-11-25T02:40:49.877Z,0.94
2022-11-25T02:43:18.810Z,0.98
2022-11-25T02:45:54.061Z,1.00
2022-11-25T02:48:34.472Z,1.05
2022-11-25T02:51:11.882Z,1.08
2022-11-25T02:53:40.186Z,1.09
2022-11-25T02:56:10.518Z,1.07
2022-11-25T02:58:39.373Z,1.08
2022-11-25T03:01:07.650Z,1.12
2022-11-25T03:03:35.546Z,1.11
2022-11-25T03:06:03.465Z,1.09
2022-11-25T03:08:31.250Z,1.04
2022-11-25T03:10:59.871Z,1.05
2022-11-25T03:13:30.339Z,1.01
2022-11-25T03:15:59.466Z,1.01
2022-11-25T03:18:28.166Z,1.02
2022-11-25T03:20:57.290Z,1.06
2022-11-25T03:23:26.750Z,1.04
2022-11-25T03:25:54.801Z,1.02
2022-11-25T03:28:23.207Z,1.01
2022-11-25T03:30:52.730Z,0.96
2022-11-25T03:33:20.589Z,0.93
2022-11-25T03:35:49.928Z,0.88
2022-11-25T03:38:19.384Z,0.91
2022-11-25T03:40:48.219Z,0.89
2022-11-25T03:43:16.144Z,0.79
2022-11-25T03:45:44.174Z,0.78
2022-11-25T03:48:14.424Z,0.72
2022-11-25T03:50:42.748Z,0.71
2022-11-25T03:53:10.703Z,0.70
2022-11-25T03:55:38.532Z,0.70
2022-11-25T03:58:06.386Z,0.69
2022-11-25T04:00:34.468Z,0.63
2022-11-25T04:03:04.781Z,0.64
2022-11-25T04:05:35.686Z,0.62
2022-11-25T04:08:07.685Z,0.57
2022-11-25T04:10:36.993Z,0.52
2022-11-25T04:13:05.353Z,0.49
2022-11-25T04:15:37.704Z,0.48
2022-11-25T04:18:06.821Z,0.47
2022-11-25T04:20:36.476Z,0.51
2022-11-25T04:23:07.220Z,0.54
2022-11-25T04:25:40.399Z,0.58
2022-11-25T04:28:13.192Z,0.57
2022-11-25T04:30:42.263Z,0.56
2022-11-25T04:33:10.176Z,0.57
2022-11-25T04:35:39.870Z,0.60
2022-11-25T04:38:08.922Z,0.63
2022-11-25T04:40:38.451Z,0.65
2022-11-25T04:43:14.843Z,0.71
2022-11-25T04:46:12.996Z,0.72
2022-11-25T04:48:39.784Z,0.69
2022-11-25T04:51:09.020Z,0.75
2022-11-25T04:53:36.866Z,0.75
2022-11-25T04:56:05.273Z,0.73
2022-11-25T04:58:58.109Z,0.76
2022-11-25T05:01:25.944Z,0.79
2022-11-25T05:04:00.415Z,0.79
2022-11-25T05:06:30.529Z,0.71
2022-11-25T05:08:58.372Z,0.64
2022-11-25T05:11:27.270Z,0.64
2022-11-25T05:13:55.050Z,0.62
2022-11-25T05:16:23.559Z,0.60
2022-11-25T05:18:52.387Z,0.61
2022-11-25T05:21:21.215Z,0.63
2022-11-25T05:23:55.598Z,0.62
2022-11-25T05:26:24.502Z,0.62
2022-11-25T05:28:54.793Z,0.64
2022-11-25T05:31:22.653Z,0.66
2022-11-25T05:33:50.974Z,0.68
2022-11-25T05:36:19.534Z,0.71
2022-11-25T05:38:50.027Z,0.72
2022-11-25T05:41:29.071Z,0.73
2022-11-25T05:43:57.126Z,0.73
2022-11-25T05:46:25.169Z,0.79
2022-11-25T05:48:57.252Z,0.79
2022-11-25T05:51:25.904Z,0.80
2022-11-25T05:53:57.194Z,0.83
2022-11-25T05:56:29.234Z,0.84
2022-11-25T05:59:19.262Z,0.88
2022-11-25T06:01:59.827Z,0.93
2022-11-25T06:04:28.001Z,0.93
2022-11-25T06:06:55.849Z,0.94
2022-11-25T06:09:25.308Z,0.94
2022-11-25T06:11:53.178Z,0.93
2022-11-25T06:14:20.932Z,0.95
2022-11-25T06:16:50.648Z,0.93
2022-11-25T06:19:29.931Z,0.94
2022-11-25T06:21:57.895Z,0.94
2022-11-25T06:24:28.618Z,0.93
2022-11-25T06:27:01.208Z,0.99
2022-11-25T06:29:28.996Z,0.97
2022-11-25T06:31:56.753Z,0.93
2022-11-25T06:34:41.891Z,0.97
2022-11-25T06:37:16.828Z,0.96
2022-11-25T06:39:46.267Z,1.06
2022-11-25T06:42:14.362Z,1.00
2022-11-25T06:44:42.390Z,0.97
2022-11-25T06:47:10.137Z,0.98
2022-11-25T06:49:37.871Z,1.00
2022-11-25T06:52:05.963Z,1.03
2022-11-25T06:54:33.954Z,1.01
2022-11-25T06:57:03.352Z,1.00
2022-11-25T06:59:31.140Z,1.01
2022-11-25T07:01:59.000Z,1.01
2022-11-25T07:04:26.831Z,1.00
2022-11-25T07:06:54.627Z,1.03
2022-11-25T07:09:22.518Z,1.06
2022-11-25T07:11:50.480Z,1.06
2022-11-25T07:14:19.609Z,1.07
2022-11-25T07:16:47.720Z,1.09
2022-11-25T07:19:18.145Z,1.13
2022-11-25T07:21:46.888Z,1.16
2022-11-25T07:24:16.984Z,1.19
2022-11-25T07:26:45.727Z,1.22
2022-11-25T07:29:49.951Z,1.23
2022-11-25T07:32:10.258Z,1.26
2022-11-25T07:34:38.502Z,1.32
2022-11-25T07:37:06.320Z,1.33
2022-11-25T07:39:34.428Z,1.34
2022-11-25T07:42:02.599Z,1.35
2022-11-25T07:44:30.359Z,1.34
2022-11-25T07:47:13.405Z,1.36
2022-11-25T07:49:41.374Z,1.39
2022-11-25T07:52:10.271Z,1.47
2022-11-25T07:54:38.072Z,1.51
2022-11-25T07:57:05.817Z,1.51
2022-11-25T07:59:33.577Z,1.51
2022-11-25T08:02:01.518Z,1.51
2022-11-25T08:04:30.623Z,1.56
2022-11-25T08:06:58.451Z,1.65
2022-11-25T08:09:26.271Z,1.62
2022-11-25T08:11:54.396Z,1.65
2022-11-25T08:14:22.797Z,1.69
2022-11-25T08:16:50.657Z,1.74
2022-11-25T08:19:18.637Z,1.79
2022-11-25T08:21:48.822Z,1.84
2022-11-25T08:24:18.608Z,1.85
2022-11-25T08:26:46.766Z,1.89
2022-11-25T08:29:16.529Z,1.94
2022-11-25T08:31:44.619Z,1.99
2022-11-25T08:34:18.756Z,2.04
2022-11-25T08:36:49.028Z,2.13
2022-11-25T08:42:07.689Z,2.30
2022-11-25T08:44:35.572Z,2.38
2022-11-25T08:47:03.412Z,2.46
2022-11-25T08:49:34.982Z,2.54
2022-11-25T08:52:08.170Z,2.64
2022-11-25T08:54:36.065Z,2.68
2022-11-25T08:57:03.933Z,2.76
2022-11-25T08:59:31.674Z,2.83
2022-11-25T09:01:59.461Z,2.92
2022-11-25T09:04:27.343Z,3.03
2022-11-25T09:06:55.170Z,3.16
2022-11-25T09:09:24.347Z,3.25
2022-11-25T09:11:52.133Z,3.34
2022-11-25T09:14:19.931Z,3.42
2022-11-25T09:16:47.679Z,3.50
2022-11-25T09:19:15.448Z,3.55
2022-11-25T09:21:44.604Z,3.62
2022-11-25T09:24:12.368Z,3.71
2022-11-25T09:26:42.223Z,3.74
2022-11-25T09:29:11.584Z,3.78
2022-11-25T09:31:39.400Z,3.83
2022-11-25T09:34:08.516Z,3.88
2022-11-25T09:36:36.430Z,3.91
2022-11-25T09:39:04.509Z,3.98
2022-11-25T09:42:07.308Z,4.04
2022-11-25T09:45:04.601Z,4.08
2022-11-25T09:47:47.495Z,4.12
2022-11-25T09:50:28.079Z,4.16
2022-11-25T09:53:06.255Z,4.22
2022-11-25T09:55:39.116Z,4.30
2022-11-25T09:58:19.834Z,4.34
2022-11-25T10:00:50.521Z,4.38
2022-11-25T10:03:32.042Z,4.43
2022-11-25T10:06:04.577Z,4.49
2022-11-25T10:08:38.417Z,4.54
2022-11-25T10:11:18.320Z,4.65
2022-11-25T10:13:53.938Z,4.80
2022-11-25T10:16:32.016Z,5.03
2022-11-25T10:19:02.303Z,5.27
2022-11-25T10:21:30.142Z,5.43
2022-11-25T10:23:58.402Z,5.53
2022-11-25T10:26:35.710Z,5.60
2022-11-25T10:29:22.969Z,5.68
2022-11-25T10:31:56.592Z,5.83
2022-11-25T10:34:31.046Z,6.06
2022-11-25T10:37:01.726Z,6.21
2022-11-25T10:39:34.822Z,6.35
2022-11-25T10:42:07.150Z,6.48
2022-11-25T10:44:38.262Z,6.62
2022-11-25T10:47:16.996Z,6.72
2022-11-25T10:50:01.001Z,6.85
2022-11-25T10:52:31.726Z,6.96
2022-11-25T10:55:10.745Z,7.01
2022-11-25T10:57:38.618Z,7.05
2022-11-25T11:00:24.698Z,7.09
2022-11-25T11:02:52.714Z,7.08
2022-11-25T11:05:24.237Z,7.08
2022-11-25T11:08:19.568Z,7.08
2022-11-25T11:10:52.872Z,7.07
2022-11-25T11:13:26.656Z,7.11
2022-11-25T11:15:55.949Z,7.12
2022-11-25T11:18:31.424Z,7.12
2022-11-25T11:21:01.228Z,7.25
2022-11-25T11:23:30.488Z,7.36
2022-11-25T11:26:01.696Z,7.42
2022-11-25T11:28:38.767Z,7.50
2022-11-25T11:31:17.477Z,7.58
2022-11-25T11:33:56.606Z,7.59
2022-11-25T11:36:36.487Z,7.64
2022-11-25T11:39:22.015Z,7.57
2022-11-25T11:41:56.430Z,7.57
2022-11-25T11:44:37.422Z,7.55
2022-11-25T11:47:21.751Z,7.58
2022-11-25T11:50:02.993Z,7.56
2022-11-25T11:52:43.995Z,7.56
2022-11-25T11:55:27.219Z,7.62
2022-11-25T11:58:07.645Z,7.65
2022-11-25T12:00:46.122Z,7.63
2022-11-25T12:03:19.701Z,7.60
2022-11-25T12:05:54.511Z,7.59
2022-11-25T12:08:31.537Z,7.63
2022-11-25T12:11:11.343Z,7.70
2022-11-25T12:13:46.690Z,7.77
2022-11-25T12:16:21.763Z,7.87
2022-11-25T12:18:57.595Z,7.92
2022-11-25T12:21:42.867Z,8.03
2022-11-25T12:24:19.587Z,8.14
2022-11-25T12:26:53.210Z,8.16
2022-11-25T12:29:29.274Z,8.25
2022-11-25T12:32:03.852Z,8.27
2022-11-25T12:34:41.069Z,8.32
2022-11-25T12:37:15.220Z,8.39
2022-11-25T12:39:49.624Z,8.45
2022-11-25T12:42:23.995Z,8.45
2022-11-25T12:45:00.262Z,8.48
2022-11-25T12:47:28.486Z,8.47
2022-11-25T12:49:58.085Z,8.48
2022-11-25T12:52:43.617Z,8.48
2022-11-25T12:55:16.301Z,8.46
2022-11-25T12:58:15.969Z,8.41
2022-11-25T13:01:11.126Z,8.36
2022-11-25T13:04:06.312Z,8.30
2022-11-25T13:06:55.382Z,8.22
2022-11-25T13:09:45.754Z,8.17
